Time;durP1;ratioP1;P1;durP2;ratioP2;P2;SDS_P1;SDS_P2;PMS_P1;PMS_P2;Temp;Humidity;BMP_temperature;BMP_pressure;BME280_temperature;BME280_humidity;BME280_pressure;Samples;Min_cycle;Max_cycle;Signal;HPM_P1;HPM_P2
2022/08/09 00:02:21;0.00;0.00;0.62;0.00;0.00;0.62;7.13;3.50;;;28.20;27.80;;;;;;2211010;62;20692;-69
2022/08/09 00:05:07;0.00;0.00;0.62;0.00;0.00;0.62;3.50;3.20;;;28.20;27.30;;;;;;2209749;62;20370;-70
2022/08/09 00:07:52;0.00;0.00;0.62;0.00;0.00;0.62;3.67;3.37;;;28.20;27.40;;;;;;2210923;62;20650;-69
2022/08/09 00:10:37;0.00;0.00;0.62;0.00;0.00;0.62;4.43;3.37;;;28.20;27.40;;;;;;2211144;62;20459;-68
2022/08/09 00:13:22;0.00;0.00;0.62;0.00;0.00;0.62;4.40;4.00;;;28.20;27.30;;;;;;2209909;62;20415;-69
2022/08/09 00:16:07;0.00;0.00;0.62;0.00;0.00;0.62;6.03;3.53;;;28.20;27.40;;;;;;2211106;62;20473;-69
2022/08/09 00:18:53;0.00;0.00;0.62;0.00;0.00;0.62;4.60;3.40;;;28.20;27.40;;;;;;2210937;62;20454;-68
2022/08/09 00:21:38;0.00;0.00;0.62;0.00;0.00;0.62;4.23;3.27;;;28.20;27.40;;;;;;2210113;62;20369;-70
2022/08/09 00:24:24;0.00;0.00;0.62;0.00;0.00;0.62;4.00;3.30;;;28.20;27.40;;;;;;2211007;62;20433;-69
2022/08/09 00:27:09;0.00;0.00;0.62;0.00;0.00;0.62;3.70;3.40;;;28.20;27.40;;;;;;2210024;62;20405;-68
2022/08/09 00:29:54;0.00;0.00;0.62;0.00;0.00;0.62;3.73;3.37;;;28.20;27.40;;;;;;2210630;62;20622;-67
2022/08/09 00:32:39;0.00;0.00;0.62;0.00;0.00;0.62;6.00;3.30;;;28.20;27.40;;;;;;2210942;62;20618;-69
2022/08/09 00:35:25;0.00;0.00;0.62;0.00;0.00;0.62;4.43;4.00;;;28.20;27.40;;;;;;2210016;62;20416;-69
2022/08/09 00:38:11;0.00;0.00;0.62;0.00;0.00;0.62;3.57;3.20;;;28.20;27.40;;;;;;2210920;62;20393;-69
2022/08/09 00:40:56;0.00;0.00;0.62;0.00;0.00;0.62;3.40;2.70;;;28.20;27.40;;;;;;2210525;62;20392;-70
2022/08/09 00:43:43;0.00;0.00;0.62;0.00;0.00;0.62;3.97;2.93;;;28.20;27.40;;;;;;2209989;62;20377;-70
2022/08/09 00:46:28;0.00;0.00;0.62;0.00;0.00;0.62;3.67;2.73;;;28.20;27.40;;;;;;2210813;62;20389;-70
2022/08/09 00:49:12;0.00;0.00;0.62;0.00;0.00;0.62;3.43;3.00;;;28.20;27.40;;;;;;2210146;62;20386;-69
2022/08/09 00:51:59;0.00;0.00;0.62;0.00;0.00;0.62;2.70;2.37;;;28.10;27.40;;;;;;2210347;62;20742;-69
2022/08/09 00:54:44;0.00;0.00;0.62;0.00;0.00;0.62;3.00;2.70;;;28.10;27.40;;;;;;2210796;62;20378;-69
2022/08/09 00:57:30;0.00;0.00;0.62;0.00;0.00;0.62;2.50;2.30;;;28.10;27.40;;;;;;2209642;62;20389;-69
2022/08/09 01:00:16;0.00;0.00;0.62;0.00;0.00;0.62;2.90;2.43;;;28.10;27.40;;;;;;2210928;62;20376;-67
2022/08/09 01:03:12;0.00;0.00;0.62;0.00;0.00;0.62;2.80;2.30;;;28.10;27.40;;;;;;2210726;62;20412;-69
2022/08/09 01:06:05;0.00;0.00;0.62;0.00;0.00;0.62;2.53;2.20;;;28.10;27.50;;;;;;2209923;62;20401;-71
2022/08/09 01:09:02;0.00;0.00;0.62;0.00;0.00;0.62;3.00;2.60;;;28.10;27.50;;;;;;2210731;62;20382;-68
2022/08/09 01:11:57;0.00;0.00;0.62;0.00;0.00;0.62;3.83;2.00;;;28.10;27.60;;;;;;2209827;62;20381;-69
2022/08/09 01:14:51;0.00;0.00;0.62;0.00;0.00;0.62;3.53;2.60;;;28.10;27.50;;;;;;2210777;62;20370;-69
2022/08/09 01:17:40;0.00;0.00;0.62;0.00;0.00;0.62;2.83;2.13;;;28.10;27.50;;;;;;2210678;62;20746;-68
2022/08/09 01:20:38;0.00;0.00;0.62;0.00;0.00;0.62;2.67;2.47;;;28.10;27.50;;;;;;2206763;62;20416;-68
2022/08/09 01:23:39;0.00;0.00;0.62;0.00;0.00;0.62;2.70;2.17;;;28.10;27.50;;;;;;2210723;62;20378;-69
2022/08/09 01:26:51;0.00;0.00;0.62;0.00;0.00;0.62;2.50;2.00;;;28.10;27.50;;;;;;2209793;62;20955;-68
2022/08/09 01:29:42;0.00;0.00;0.62;0.00;0.00;0.62;3.30;2.23;;;28.10;27.60;;;;;;2210713;62;20427;-69
2022/08/09 01:32:34;0.00;0.00;0.62;0.00;0.00;0.62;2.80;2.17;;;28.00;27.60;;;;;;2211002;62;20365;-68
2022/08/09 01:35:25;0.00;0.00;0.62;0.00;0.00;0.62;2.30;1.97;;;28.10;27.60;;;;;;2209334;62;20417;-68
2022/08/09 01:38:16;0.00;0.00;0.62;0.00;0.00;0.62;2.57;2.17;;;28.00;27.60;;;;;;2210644;62;20385;-69
2022/08/09 01:41:08;0.00;0.00;0.62;0.00;0.00;0.62;4.60;2.10;;;28.00;27.60;;;;;;2209485;62;20401;-69
2022/08/09 01:44:00;0.00;0.00;0.62;0.00;0.00;0.62;2.83;2.13;;;28.00;27.50;;;;;;2210733;62;20598;-69
2022/08/09 01:46:47;0.00;0.00;0.62;0.00;0.00;0.62;2.47;1.87;;;28.00;27.50;;;;;;2210634;62;20618;-69
2022/08/09 01:49:36;0.00;0.00;0.62;0.00;0.00;0.62;3.33;2.10;;;28.00;27.60;;;;;;2209873;62;20713;-69
2022/08/09 01:52:23;0.00;0.00;0.62;0.00;0.00;0.62;2.47;2.07;;;28.00;27.60;;;;;;2210687;62;20412;-69
2022/08/09 01:55:10;0.00;0.00;0.62;0.00;0.00;0.62;2.53;1.87;;;28.00;27.60;;;;;;2210732;62;20588;-68
2022/08/09 01:57:56;0.00;0.00;0.62;0.00;0.00;0.62;3.03;1.93;;;28.00;27.60;;;;;;2209594;62;20827;-69
2022/08/09 02:00:43;0.00;0.00;0.62;0.00;0.00;0.62;2.20;1.90;;;28.00;27.60;;;;;;2210747;62;20419;-68
2022/08/09 02:03:32;0.00;0.00;0.62;0.00;0.00;0.62;3.37;2.30;;;28.00;27.60;;;;;;2209914;62;20378;-69
2022/08/09 02:07:07;0.00;0.00;0.62;0.00;0.00;0.62;2.70;2.37;;;28.00;27.70;;;;;;2210526;62;20774;-68
2022/08/09 02:09:25;0.00;0.00;0.62;0.00;0.00;0.62;2.83;2.20;;;28.00;27.60;;;;;;2210691;62;20377;-68
2022/08/09 02:12:12;0.00;0.00;0.62;0.00;0.00;0.62;2.40;1.97;;;28.00;27.60;;;;;;2209465;62;20417;-68
2022/08/09 02:14:59;0.00;0.00;0.62;0.00;0.00;0.62;3.40;2.20;;;28.00;27.60;;;;;;2210700;62;20416;-68
2022/08/09 02:17:48;0.00;0.00;0.62;0.00;0.00;0.62;2.37;1.80;;;28.00;27.60;;;;;;2210434;62;20613;-68
2022/08/09 02:20:38;0.00;0.00;0.62;0.00;0.00;0.62;3.87;2.10;;;28.00;27.70;;;;;;2210635;62;20427;-69
2022/08/09 02:23:30;0.00;0.00;0.62;0.00;0.00;0.62;2.70;2.07;;;28.00;27.70;;;;;;2211492;62;20373;-68
2022/08/09 02:26:16;0.00;0.00;0.62;0.00;0.00;0.62;2.47;1.77;;;28.00;27.70;;;;;;2210071;62;20401;-69
2022/08/09 02:29:10;0.00;0.00;0.62;0.00;0.00;0.62;2.23;2.03;;;28.00;27.70;;;;;;2211270;62;20448;-69
2022/08/09 02:32:00;0.00;0.00;0.62;0.00;0.00;0.62;2.60;2.17;;;28.00;27.70;;;;;;2211239;62;20401;-68
2022/08/09 02:34:53;0.00;0.00;0.62;0.00;0.00;0.62;2.63;1.90;;;28.00;27.70;;;;;;2210466;62;20408;-68
2022/08/09 02:37:41;0.00;0.00;0.62;0.00;0.00;0.62;2.00;1.50;;;28.00;27.70;;;;;;2211247;62;20392;-70
2022/08/09 02:40:28;0.00;0.00;0.62;0.00;0.00;0.62;2.40;1.87;;;28.00;27.70;;;;;;2210084;62;20408;-69
2022/08/09 02:43:13;0.00;0.00;0.62;0.00;0.00;0.62;2.60;2.00;;;28.00;27.70;;;;;;2211346;62;20446;-69
2022/08/09 02:46:02;0.00;0.00;0.62;0.00;0.00;0.62;2.43;1.80;;;28.00;27.70;;;;;;2210827;62;20404;-69
2022/08/09 02:48:48;0.00;0.00;0.62;0.00;0.00;0.62;3.40;2.20;;;28.00;27.70;;;;;;2210197;62;20761;-69
2022/08/09 02:51:38;0.00;0.00;0.62;0.00;0.00;0.62;2.10;1.67;;;28.00;27.70;;;;;;2211303;62;20368;-68
2022/08/09 02:54:26;0.00;0.00;0.62;0.00;0.00;0.62;3.30;2.00;;;28.00;27.70;;;;;;2211135;62;20725;-69
2022/08/09 02:57:15;0.00;0.00;0.62;0.00;0.00;0.62;2.90;2.00;;;28.00;27.70;;;;;;2210199;62;20627;-67
2022/08/09 03:00:01;0.00;0.00;0.62;0.00;0.00;0.62;2.63;2.03;;;28.00;27.80;;;;;;2210838;62;20412;-69
2022/08/09 03:02:52;0.00;0.00;0.62;0.00;0.00;0.62;2.43;1.97;;;28.00;27.80;;;;;;2210336;62;20424;-69
2022/08/09 03:05:38;0.00;0.00;0.62;0.00;0.00;0.62;1.90;1.50;;;27.90;27.80;;;;;;2211292;62;20488;-69
2022/08/09 03:08:25;0.00;0.00;0.62;0.00;0.00;0.62;2.03;1.67;;;27.90;27.70;;;;;;2210987;62;20393;-67
2022/08/09 03:11:12;0.00;0.00;0.62;0.00;0.00;0.62;2.03;1.80;;;28.00;28.30;;;;;;2210156;62;20467;-67
2022/08/09 03:14:00;0.00;0.00;0.62;0.00;0.00;0.62;2.77;1.50;;;27.90;27.70;;;;;;2211225;62;20750;-68
2022/08/09 03:16:45;0.00;0.00;0.62;0.00;0.00;0.62;2.70;2.00;;;27.90;27.80;;;;;;2211184;62;20373;-69
2022/08/09 03:19:31;0.00;0.00;0.62;0.00;0.00;0.62;2.40;1.93;;;27.90;27.80;;;;;;2210660;62;20639;-69
2022/08/09 03:22:18;0.00;0.00;0.62;0.00;0.00;0.62;2.67;2.00;;;27.90;27.80;;;;;;2211137;62;20373;-68
2022/08/09 03:25:07;0.00;0.00;0.62;0.00;0.00;0.62;3.10;2.30;;;27.90;27.80;;;;;;2210120;62;20373;-68
2022/08/09 03:27:55;0.00;0.00;0.62;0.00;0.00;0.62;2.07;1.70;;;27.90;27.90;;;;;;2211074;62;20490;-69
2022/08/09 03:30:40;0.00;0.00;0.62;0.00;0.00;0.62;5.23;2.00;;;27.90;27.90;;;;;;2211070;62;20775;-69
2022/08/09 03:33:26;0.00;0.00;0.62;0.00;0.00;0.62;2.97;1.80;;;27.90;27.90;;;;;;2209629;62;20402;-69
2022/08/09 03:36:11;0.00;0.00;0.62;0.00;0.00;0.62;2.30;1.57;;;27.90;27.90;;;;;;2210933;62;20627;-68
2022/08/09 03:38:56;0.00;0.00;0.62;0.00;0.00;0.62;2.10;1.60;;;27.90;27.80;;;;;;2210725;62;20389;-70
2022/08/09 03:41:42;0.00;0.00;0.62;0.00;0.00;0.62;2.23;1.63;;;27.90;27.90;;;;;;2210447;62;20421;-69
2022/08/09 03:44:28;0.00;0.00;0.62;0.00;0.00;0.62;3.33;2.07;;;27.90;27.90;;;;;;2211024;62;20494;-67
2022/08/09 03:47:13;0.00;0.00;0.62;0.00;0.00;0.62;2.43;2.00;;;27.90;27.90;;;;;;2209910;62;20440;-70
2022/08/09 03:50:00;0.00;0.00;0.62;0.00;0.00;0.62;3.33;2.20;;;27.90;27.90;;;;;;2211072;62;20420;-70
2022/08/09 03:52:45;0.00;0.00;0.62;0.00;0.00;0.62;2.77;2.37;;;27.90;28.00;;;;;;2211074;62;20450;-70
2022/08/09 03:55:31;0.00;0.00;0.62;0.00;0.00;0.62;2.20;1.73;;;27.90;28.00;;;;;;2210123;62;20374;-69
2022/08/09 03:58:18;0.00;0.00;0.62;0.00;0.00;0.62;2.87;1.87;;;27.90;28.10;;;;;;2210916;62;20617;-70
2022/08/09 04:01:04;0.00;0.00;0.62;0.00;0.00;0.62;2.20;1.77;;;27.90;28.10;;;;;;2211026;62;20381;-69
2022/08/09 04:03:51;0.00;0.00;0.62;0.00;0.00;0.62;3.17;1.90;;;27.90;28.10;;;;;;2210082;62;20620;-68
2022/08/09 04:06:37;0.00;0.00;0.62;0.00;0.00;0.62;1.80;1.57;;;27.90;28.10;;;;;;2210852;62;20389;-69
2022/08/09 04:09:22;0.00;0.00;0.62;0.00;0.00;0.62;3.10;2.10;;;27.90;28.10;;;;;;2210088;62;20446;-69
2022/08/09 04:12:43;0.00;0.00;0.62;0.00;0.00;0.62;3.07;2.30;;;27.90;28.10;;;;;;2210901;62;20369;-69
2022/08/09 04:15:30;0.00;0.00;0.62;0.00;0.00;0.62;2.50;2.00;;;27.90;28.10;;;;;;2211060;62;20737;-68
2022/08/09 04:18:14;0.00;0.00;0.62;0.00;0.00;0.62;1.90;1.70;;;27.80;28.00;;;;;;2209806;62;20388;-68
2022/08/09 04:20:59;0.00;0.00;0.62;0.00;0.00;0.62;3.30;2.27;;;27.80;28.00;;;;;;2211027;62;20411;-67
2022/08/09 04:23:44;0.00;0.00;0.62;0.00;0.00;0.62;2.20;1.73;;;27.80;28.00;;;;;;2210393;62;20357;-68
2022/08/09 04:26:28;0.00;0.00;0.62;0.00;0.00;0.62;2.07;1.63;;;27.80;27.90;;;;;;2210552;62;20804;-69
2022/08/09 04:29:13;0.00;0.00;0.62;0.00;0.00;0.62;2.73;1.90;;;27.80;27.90;;;;;;2210893;62;20461;-68
2022/08/09 04:31:59;0.00;0.00;0.62;0.00;0.00;0.62;2.53;2.33;;;27.80;27.90;;;;;;2209730;62;20485;-68
2022/08/09 04:34:44;0.00;0.00;0.62;0.00;0.00;0.62;3.10;2.00;;;27.80;27.90;;;;;;2210915;62;20392;-69
2022/08/09 04:37:29;0.00;0.00;0.62;0.00;0.00;0.62;3.83;2.10;;;27.80;27.90;;;;;;2210886;62;20468;-69
2022/08/09 04:40:14;0.00;0.00;0.62;0.00;0.00;0.62;2.23;2.03;;;27.80;28.00;;;;;;2209726;62;20370;-68
2022/08/09 04:42:59;0.00;0.00;0.62;0.00;0.00;0.62;2.27;1.97;;;27.80;28.00;;;;;;2210827;62;20788;-70
2022/08/09 04:45:45;0.00;0.00;0.62;0.00;0.00;0.62;4.93;1.70;;;27.90;28.10;;;;;;2210838;62;20408;-68
2022/08/09 04:48:31;0.00;0.00;0.62;0.00;0.00;0.62;2.33;1.70;;;27.80;28.00;;;;;;2210546;62;20442;-67
2022/08/09 04:51:16;0.00;0.00;0.62;0.00;0.00;0.62;3.20;1.97;;;27.80;28.20;;;;;;2210899;62;20512;-68
2022/08/09 04:54:01;0.00;0.00;0.62;0.00;0.00;0.62;5.67;2.10;;;27.80;28.10;;;;;;2209633;62;20389;-68
2022/08/09 04:56:46;0.00;0.00;0.62;0.00;0.00;0.62;2.83;2.20;;;27.80;28.20;;;;;;2210725;62;20362;-68
2022/08/09 04:59:30;0.00;0.00;0.62;0.00;0.00;0.62;2.80;2.00;;;27.80;28.20;;;;;;2210847;62;20401;-67
2022/08/09 05:02:15;0.00;0.00;0.62;0.00;0.00;0.62;4.10;2.17;;;27.80;28.20;;;;;;2209739;62;20382;-68
2022/08/09 05:05:01;0.00;0.00;0.62;0.00;0.00;0.62;3.23;2.30;;;27.80;28.20;;;;;;2210751;62;20406;-67
2022/08/09 05:07:46;0.00;0.00;0.62;0.00;0.00;0.62;4.50;2.40;;;27.80;28.10;;;;;;2210607;62;20405;-68
2022/08/09 05:10:31;0.00;0.00;0.62;0.00;0.00;0.62;2.33;1.83;;;27.80;28.10;;;;;;2210410;62;20378;-68
2022/08/09 05:13:16;0.00;0.00;0.62;0.00;0.00;0.62;3.57;2.90;;;27.80;28.10;;;;;;2210779;62;20377;-72
2022/08/09 05:16:00;0.00;0.00;0.62;0.00;0.00;0.62;3.87;2.33;;;27.80;28.10;;;;;;2209396;62;20362;-69
2022/08/09 05:18:45;0.00;0.00;0.62;0.00;0.00;0.62;3.07;2.00;;;27.80;28.20;;;;;;2210762;62;20466;-67
2022/08/09 05:21:31;0.00;0.00;0.62;0.00;0.00;0.62;3.43;2.20;;;27.80;28.20;;;;;;2210896;62;20389;-72
2022/08/09 05:24:16;0.00;0.00;0.62;0.00;0.00;0.62;2.43;2.10;;;27.80;28.20;;;;;;2209718;62;20837;-72
2022/08/09 05:27:01;0.00;0.00;0.62;0.00;0.00;0.62;2.10;1.90;;;27.80;28.20;;;;;;2210603;62;20455;-68
2022/08/09 05:29:45;0.00;0.00;0.62;0.00;0.00;0.62;2.77;2.30;;;27.80;28.20;;;;;;2210679;62;20466;-68
2022/08/09 05:32:30;0.00;0.00;0.62;0.00;0.00;0.62;3.33;2.37;;;27.80;28.20;;;;;;2209820;62;20369;-69
2022/08/09 05:35:15;0.00;0.00;0.62;0.00;0.00;0.62;3.90;2.40;;;27.80;28.20;;;;;;2210707;62;20374;-68
2022/08/09 05:38:01;0.00;0.00;0.62;0.00;0.00;0.62;3.23;2.47;;;27.80;28.80;;;;;;2209929;62;20613;-72
2022/08/09 05:40:46;0.00;0.00;0.62;0.00;0.00;0.62;5.30;2.90;;;27.80;28.30;;;;;;2210670;62;20377;-72
2022/08/09 05:43:34;0.00;0.00;0.62;0.00;0.00;0.62;5.40;3.87;;;27.80;28.40;;;;;;2210694;62;20419;-68
2022/08/09 05:46:19;0.00;0.00;0.62;0.00;0.00;0.62;3.10;2.13;;;27.80;28.50;;;;;;2209512;62;20428;-68
2022/08/09 05:49:03;0.00;0.00;0.62;0.00;0.00;0.62;3.90;2.50;;;27.80;28.50;;;;;;2210577;62;20642;-72
2022/08/09 05:51:48;0.00;0.00;0.62;0.00;0.00;0.62;2.80;2.40;;;27.70;28.50;;;;;;2210649;62;20749;-72
2022/08/09 05:54:34;0.00;0.00;0.62;0.00;0.00;0.62;4.10;2.23;;;27.70;28.50;;;;;;2209734;62;20496;-69
2022/08/09 05:57:19;0.00;0.00;0.62;0.00;0.00;0.62;2.83;2.57;;;27.70;28.50;;;;;;2210371;62;20386;-70
2022/08/09 06:00:06;0.00;0.00;0.62;0.00;0.00;0.62;2.10;1.90;;;27.70;28.50;;;;;;2210044;62;20377;-68
2022/08/09 06:02:56;0.00;0.00;0.62;0.00;0.00;0.62;2.63;2.37;;;27.70;28.40;;;;;;2210737;62;20775;-65
2022/08/09 06:05:40;0.00;0.00;0.62;0.00;0.00;0.62;2.93;2.63;;;27.70;28.50;;;;;;2210167;62;20415;-70
2022/08/09 06:08:25;0.00;0.00;0.62;0.00;0.00;0.62;2.87;2.27;;;27.80;28.50;;;;;;2209848;62;20422;-68
2022/08/09 06:11:11;0.00;0.00;0.62;0.00;0.00;0.62;3.40;2.10;;;27.80;29.10;;;;;;2210788;62;20774;-67
2022/08/09 06:13:56;0.00;0.00;0.62;0.00;0.00;0.62;3.60;2.90;;;27.80;29.10;;;;;;2210500;62;20582;-71
2022/08/09 06:16:41;0.00;0.00;0.62;0.00;0.00;0.62;7.33;2.50;;;27.80;28.60;;;;;;2209594;62;20773;-70
2022/08/09 06:19:26;0.00;0.00;0.62;0.00;0.00;0.62;3.00;2.37;;;27.80;28.60;;;;;;2210520;62;20365;-67
2022/08/09 06:22:11;0.00;0.00;0.62;0.00;0.00;0.62;4.07;3.20;;;27.80;28.60;;;;;;2209980;62;20419;-69
2022/08/09 06:24:56;0.00;0.00;0.62;0.00;0.00;0.62;3.37;2.53;;;27.80;28.50;;;;;;2210446;62;20389;-68
2022/08/09 06:27:43;0.00;0.00;0.62;0.00;0.00;0.62;2.97;2.63;;;27.80;28.60;;;;;;2210617;62;20405;-71
2022/08/09 06:30:28;0.00;0.00;0.62;0.00;0.00;0.62;2.63;2.23;;;27.80;28.60;;;;;;2209494;62;20600;-69
2022/08/09 06:33:12;0.00;0.00;0.62;0.00;0.00;0.62;4.10;2.10;;;27.80;28.60;;;;;;2210503;62;20451;-68
2022/08/09 06:35:57;0.00;0.00;0.62;0.00;0.00;0.62;4.53;2.83;;;27.80;28.60;;;;;;2210680;62;20369;-69
2022/08/09 06:38:44;0.00;0.00;0.62;0.00;0.00;0.62;2.53;2.00;;;27.80;28.60;;;;;;2209445;62;20428;-67
2022/08/09 06:41:28;0.00;0.00;0.62;0.00;0.00;0.62;3.30;2.07;;;27.80;28.60;;;;;;2210672;62;20775;-67
2022/08/09 06:44:14;0.00;0.00;0.62;0.00;0.00;0.62;2.60;2.37;;;27.80;28.50;;;;;;2210822;62;20407;-68
2022/08/09 06:46:59;0.00;0.00;0.62;0.00;0.00;0.62;2.43;2.07;;;27.80;28.50;;;;;;2210168;62;20481;-71
2022/08/09 06:49:44;0.00;0.00;0.62;0.00;0.00;0.62;3.73;2.07;;;27.80;28.50;;;;;;2210793;62;20423;-68
2022/08/09 06:52:28;0.00;0.00;0.62;0.00;0.00;0.62;3.33;2.43;;;27.80;28.40;;;;;;2209564;62;20450;-68
2022/08/09 06:55:14;0.00;0.00;0.62;0.00;0.00;0.62;2.20;1.80;;;27.90;28.50;;;;;;2210550;62;20455;-71
2022/08/09 06:57:59;0.00;0.00;0.62;0.00;0.00;0.62;2.33;2.00;;;27.90;28.50;;;;;;2210366;62;20611;-71
2022/08/09 07:00:45;0.00;0.00;0.62;0.00;0.00;0.62;3.77;2.10;;;27.90;28.40;;;;;;2209730;62;20374;-72
2022/08/09 07:03:33;0.00;0.00;0.62;0.00;0.00;0.62;3.50;2.17;;;27.90;28.40;;;;;;2210796;62;20369;-69
2022/08/09 07:06:17;0.00;0.00;0.62;0.00;0.00;0.62;2.67;2.00;;;27.90;28.40;;;;;;2211051;62;20709;-69
2022/08/09 07:09:03;0.00;0.00;0.62;0.00;0.00;0.62;3.00;1.90;;;27.90;28.40;;;;;;2211726;62;20423;-69
2022/08/09 07:11:47;0.00;0.00;0.62;0.00;0.00;0.62;7.03;2.90;;;27.90;28.40;;;;;;2211342;62;20369;-67
2022/08/09 07:14:32;0.00;0.00;0.62;0.00;0.00;0.62;3.17;2.03;;;27.90;28.40;;;;;;2209956;62;20377;-69
2022/08/09 07:17:18;0.00;0.00;0.62;0.00;0.00;0.62;3.10;2.00;;;27.90;28.40;;;;;;2211057;62;20417;-73
2022/08/09 07:20:04;0.00;0.00;0.62;0.00;0.00;0.62;2.20;1.93;;;27.90;28.40;;;;;;2211275;62;20374;-67
2022/08/09 07:22:49;0.00;0.00;0.62;0.00;0.00;0.62;4.03;1.83;;;27.90;28.30;;;;;;2209950;62;20407;-68
2022/08/09 07:25:34;0.00;0.00;0.62;0.00;0.00;0.62;2.30;1.60;;;27.90;28.30;;;;;;2211156;62;20413;-67
2022/08/09 07:28:19;0.00;0.00;0.62;0.00;0.00;0.62;3.20;1.73;;;27.90;28.30;;;;;;2210975;62;20613;-68
2022/08/09 07:31:05;0.00;0.00;0.62;0.00;0.00;0.62;2.90;1.70;;;27.90;28.30;;;;;;2210091;62;20726;-67
2022/08/09 07:33:51;0.00;0.00;0.62;0.00;0.00;0.62;1.80;1.43;;;27.90;28.30;;;;;;2210859;62;20392;-71
2022/08/09 07:36:36;0.00;0.00;0.62;0.00;0.00;0.62;3.10;1.50;;;27.90;28.30;;;;;;2209968;62;20374;-69
2022/08/09 07:39:22;0.00;0.00;0.62;0.00;0.00;0.62;4.20;1.70;;;27.90;28.30;;;;;;2211055;62;20403;-68
2022/08/09 07:42:06;0.00;0.00;0.62;0.00;0.00;0.62;3.93;1.70;;;27.90;28.30;;;;;;2211196;62;20428;-68
2022/08/09 07:44:51;0.00;0.00;0.62;0.00;0.00;0.62;4.00;2.00;;;27.90;28.30;;;;;;2209979;62;20432;-70
2022/08/09 07:47:36;0.00;0.00;0.62;0.00;0.00;0.62;3.00;1.77;;;27.90;28.30;;;;;;2210877;62;20405;-69
2022/08/09 07:50:25;0.00;0.00;0.62;0.00;0.00;0.62;3.77;2.00;;;28.00;28.30;;;;;;2211074;62;20443;-70
2022/08/09 07:53:10;0.00;0.00;0.62;0.00;0.00;0.62;3.20;1.77;;;28.00;28.30;;;;;;2210220;62;20465;-71
2022/08/09 07:55:54;0.00;0.00;0.62;0.00;0.00;0.62;2.77;1.60;;;28.00;28.20;;;;;;2211021;62;20753;-70
2022/08/09 07:58:39;0.00;0.00;0.62;0.00;0.00;0.62;3.87;2.00;;;28.00;28.10;;;;;;2210174;62;20445;-70
2022/08/09 08:01:24;0.00;0.00;0.62;0.00;0.00;0.62;4.70;2.27;;;27.90;28.00;;;;;;2211141;62;20410;-73
2022/08/09 08:04:09;0.00;0.00;0.62;0.00;0.00;0.62;3.07;1.63;;;28.00;28.00;;;;;;2211099;62;20369;-67
2022/08/09 08:06:55;0.00;0.00;0.62;0.00;0.00;0.62;4.30;1.40;;;27.90;27.90;;;;;;2209965;62;20397;-70
2022/08/09 08:09:40;0.00;0.00;0.62;0.00;0.00;0.62;3.03;1.43;;;27.90;27.90;;;;;;2211091;62;20598;-71
2022/08/09 08:12:24;0.00;0.00;0.62;0.00;0.00;0.62;2.80;1.50;;;27.90;27.80;;;;;;2211045;62;20374;-70
2022/08/09 08:15:11;0.00;0.00;0.62;0.00;0.00;0.62;2.63;1.20;;;27.90;27.80;;;;;;2210137;62;20377;-69
2022/08/09 08:17:56;0.00;0.00;0.62;0.00;0.00;0.62;2.63;1.67;;;27.90;27.80;;;;;;2210956;62;20397;-72
2022/08/09 08:20:40;0.00;0.00;0.62;0.00;0.00;0.62;2.60;1.23;;;27.90;27.80;;;;;;2210267;62;20374;-69
2022/08/09 08:23:27;0.00;0.00;0.62;0.00;0.00;0.62;2.80;1.80;;;27.90;27.80;;;;;;2211086;62;20416;-70
2022/08/09 08:26:11;0.00;0.00;0.62;0.00;0.00;0.62;3.63;1.67;;;27.90;27.80;;;;;;2210828;62;20378;-69
2022/08/09 08:28:56;0.00;0.00;0.62;0.00;0.00;0.62;2.93;1.80;;;27.90;27.80;;;;;;2210114;62;20393;-69
2022/08/09 08:31:41;0.00;0.00;0.62;0.00;0.00;0.62;2.20;1.80;;;27.90;27.80;;;;;;2210937;62;20776;-65
2022/08/09 08:34:26;0.00;0.00;0.62;0.00;0.00;0.62;2.23;1.70;;;27.90;27.80;;;;;;2210867;62;20369;-69
2022/08/09 08:37:11;0.00;0.00;0.62;0.00;0.00;0.62;4.90;1.50;;;27.90;27.80;;;;;;2209886;62;20734;-68
2022/08/09 08:39:57;0.00;0.00;0.62;0.00;0.00;0.62;2.70;2.07;;;27.80;27.70;;;;;;2210915;62;20397;-67
2022/08/09 08:42:42;0.00;0.00;0.62;0.00;0.00;0.62;4.03;2.10;;;27.90;27.80;;;;;;2210809;62;20381;-66
2022/08/09 08:45:32;0.00;0.00;0.62;0.00;0.00;0.62;2.97;1.70;;;27.90;27.80;;;;;;2210745;62;20767;-68
2022/08/09 08:48:18;0.00;0.00;0.62;0.00;0.00;0.62;2.50;1.60;;;27.80;27.70;;;;;;2210662;62;20624;-69
2022/08/09 08:51:04;0.00;0.00;0.62;0.00;0.00;0.62;1.90;1.70;;;27.80;27.70;;;;;;2209804;62;20369;-69
2022/08/09 08:53:51;0.00;0.00;0.62;0.00;0.00;0.62;2.60;1.80;;;27.90;27.70;;;;;;2210827;62;20373;-68
2022/08/09 08:56:39;0.00;0.00;0.62;0.00;0.00;0.62;3.03;1.80;;;27.80;27.70;;;;;;2210797;62;20349;-66
2022/08/09 08:59:25;0.00;0.00;0.62;0.00;0.00;0.62;2.40;1.60;;;27.80;27.70;;;;;;2210067;62;20417;-68
2022/08/09 09:02:20;0.00;0.00;0.62;0.00;0.00;0.62;2.20;1.63;;;27.80;27.60;;;;;;2210754;62;20427;-71
2022/08/09 09:05:07;0.00;0.00;0.62;0.00;0.00;0.62;2.67;2.03;;;27.80;27.70;;;;;;2210120;62;20799;-68
2022/08/09 09:07:53;0.00;0.00;0.62;0.00;0.00;0.62;2.83;2.23;;;27.90;27.70;;;;;;2210894;62;20393;-70
2022/08/09 09:10:41;0.00;0.00;0.62;0.00;0.00;0.62;2.43;1.70;;;27.90;27.60;;;;;;2210856;62;20577;-70
2022/08/09 09:13:27;0.00;0.00;0.62;0.00;0.00;0.62;3.63;2.30;;;27.80;28.00;;;;;;2209882;62;20608;-72
2022/08/09 09:16:12;0.00;0.00;0.62;0.00;0.00;0.62;3.57;2.13;;;27.90;27.50;;;;;;2210615;62;20547;-70
2022/08/09 09:18:58;0.00;0.00;0.62;0.00;0.00;0.62;3.20;1.43;;;27.90;27.50;;;;;;2210913;62;20523;-68
2022/08/09 09:22:04;0.00;0.00;0.62;0.00;0.00;0.62;3.40;2.40;;;27.90;27.50;;;;;;2209847;62;20405;-71
2022/08/09 09:24:51;0.00;0.00;0.62;0.00;0.00;0.62;3.10;1.90;;;27.90;27.50;;;;;;2210775;62;20365;-70
2022/08/09 09:27:36;0.00;0.00;0.62;0.00;0.00;0.62;2.43;1.83;;;27.90;27.50;;;;;;2209577;62;20400;-69
2022/08/09 09:30:22;0.00;0.00;0.62;0.00;0.00;0.62;4.33;2.00;;;27.90;27.50;;;;;;2210563;62;20449;-66
2022/08/09 09:33:10;0.00;0.00;0.62;0.00;0.00;0.62;3.90;2.23;;;27.90;27.50;;;;;;2210883;62;20378;-65
2022/08/09 09:35:58;0.00;0.00;0.62;0.00;0.00;0.62;4.47;1.93;;;27.90;27.60;;;;;;2209600;62;20801;-68
2022/08/09 09:38:46;0.00;0.00;0.62;0.00;0.00;0.62;4.63;2.17;;;27.90;27.70;;;;;;2211018;62;20389;-68
2022/08/09 09:41:33;0.00;0.00;0.62;0.00;0.00;0.62;5.93;2.27;;;27.90;27.60;;;;;;2214713;62;20764;-67
2022/08/09 09:44:28;0.00;0.00;0.62;0.00;0.00;0.62;4.30;2.40;;;27.80;27.50;;;;;;2213741;62;20773;-65
2022/08/09 09:47:16;0.00;0.00;0.62;0.00;0.00;0.62;2.77;2.00;;;27.90;27.50;;;;;;2214550;62;20393;-67
2022/08/09 09:50:01;0.00;0.00;0.62;0.00;0.00;0.62;3.80;2.40;;;27.80;27.50;;;;;;2213462;62;20430;-65
2022/08/09 09:52:50;0.00;0.00;0.62;0.00;0.00;0.62;5.60;2.33;;;27.80;27.60;;;;;;2214433;62;20403;-64
2022/08/09 09:55:49;0.00;0.00;0.62;0.00;0.00;0.62;2.27;2.00;;;27.80;27.60;;;;;;2214617;62;20385;-66
2022/08/09 09:58:52;0.00;0.00;0.62;0.00;0.00;0.62;6.70;2.20;;;27.80;27.70;;;;;;2213344;62;20803;-63
2022/08/09 10:01:38;0.00;0.00;0.62;0.00;0.00;0.62;2.70;2.33;;;27.80;27.70;;;;;;2214638;62;20380;-67
2022/08/09 10:04:24;0.00;0.00;0.62;0.00;0.00;0.62;2.50;2.30;;;27.80;27.70;;;;;;2213648;62;20784;-65
2022/08/09 10:07:24;0.00;0.00;0.62;0.00;0.00;0.62;2.30;2.10;;;27.80;27.70;;;;;;2214395;62;20474;-69
2022/08/09 10:10:10;0.00;0.00;0.62;0.00;0.00;0.62;3.47;2.70;;;27.80;27.70;;;;;;2214628;62;20624;-67
2022/08/09 10:12:55;0.00;0.00;0.62;0.00;0.00;0.62;4.73;2.67;;;27.80;27.70;;;;;;2213359;62;20797;-67
2022/08/09 10:15:48;0.00;0.00;0.62;0.00;0.00;0.62;3.77;2.77;;;27.80;27.60;;;;;;2214460;62;20434;-68
2022/08/09 10:18:33;0.00;0.00;0.62;0.00;0.00;0.62;4.10;2.50;;;27.90;27.70;;;;;;2214371;62;20407;-67
2022/08/09 10:21:19;0.00;0.00;0.62;0.00;0.00;0.62;3.13;2.70;;;27.90;27.70;;;;;;2213837;62;20721;-67
2022/08/09 10:24:05;0.00;0.00;0.62;0.00;0.00;0.62;3.20;2.30;;;27.90;27.60;;;;;;2214436;62;20858;-67
2022/08/09 10:26:51;0.00;0.00;0.62;0.00;0.00;0.62;3.27;2.30;;;27.90;27.60;;;;;;2213194;62;20453;-69
2022/08/09 10:29:36;0.00;0.00;0.62;0.00;0.00;0.62;4.23;2.77;;;27.90;27.50;;;;;;2214606;62;20376;-68
2022/08/09 10:32:22;0.00;0.00;0.62;0.00;0.00;0.62;2.93;2.60;;;27.90;27.50;;;;;;2214334;62;20365;-67
2022/08/09 10:35:11;0.00;0.00;0.62;0.00;0.00;0.62;3.10;2.60;;;27.90;27.50;;;;;;2213322;62;20843;-68
2022/08/09 10:37:59;0.00;0.00;0.62;0.00;0.00;0.62;4.43;2.87;;;27.90;27.50;;;;;;2214418;62;20451;-67
2022/08/09 10:40:45;0.00;0.00;0.62;0.00;0.00;0.62;3.80;2.23;;;27.90;27.40;;;;;;2214205;62;20741;-67
2022/08/09 10:43:31;0.00;0.00;0.62;0.00;0.00;0.62;2.80;2.30;;;27.90;27.40;;;;;;2214462;62;20413;-67
2022/08/09 10:46:46;0.00;0.00;0.62;0.00;0.00;0.62;3.10;2.07;;;27.90;27.40;;;;;;2214942;62;20404;-66
2022/08/09 10:49:47;0.00;0.00;0.62;0.00;0.00;0.62;3.10;2.50;;;27.90;27.30;;;;;;2214016;62;20368;-68
2022/08/09 10:53:04;0.00;0.00;0.62;0.00;0.00;0.62;4.27;2.83;;;27.90;27.30;;;;;;2215140;62;20370;-66
2022/08/09 10:55:49;0.00;0.00;0.62;0.00;0.00;0.62;2.93;2.50;;;28.00;27.40;;;;;;2214914;62;20742;-68
2022/08/09 10:58:34;0.00;0.00;0.62;0.00;0.00;0.62;3.80;2.60;;;28.00;27.40;;;;;;2214957;62;20420;-69
2022/08/09 11:01:39;0.00;0.00;0.62;0.00;0.00;0.62;2.90;2.70;;;28.00;27.30;;;;;;2214898;62;20365;-67